createdAt,value
2018-06-01T00:02:01.193Z,7.30
2018-06-01T00:04:28.771Z,9.50
2018-06-01T00:06:56.325Z,6.33
2018-06-01T00:09:23.941Z,6.93
2018-06-01T00:11:51.398Z,5.73
2018-06-01T00:14:19.344Z,5.67
2018-06-01T00:16:47.200Z,4.30
2018-06-01T00:19:14.666Z,5.30
2018-06-01T00:21:42.113Z,5.27
2018-06-01T00:24:09.666Z,2.87
2018-06-01T00:26:37.212Z,3.67
2018-06-01T00:29:04.755Z,8.10
2018-06-01T00:31:32.214Z,2.50
2018-06-01T00:33:59.650Z,9.20
2018-06-01T00:36:27.107Z,7.50
2018-06-01T00:38:54.544Z,3.50
2018-06-01T00:41:22.058Z,5.03
2018-06-01T00:43:49.717Z,2.53
2018-06-01T00:46:17.362Z,3.40
2018-06-01T00:48:44.801Z,5.67
2018-06-01T00:51:12.303Z,6.33
2018-06-01T00:53:39.755Z,4.27
2018-06-01T00:56:07.192Z,2.70
2018-06-01T00:58:35.817Z,1.87
2018-06-01T01:01:03.537Z,2.53
2018-06-01T01:03:31.710Z,3.20
2018-06-01T01:05:59.264Z,1.83
2018-06-01T01:08:28.444Z,3.73
2018-06-01T01:10:55.886Z,5.10
2018-06-01T01:13:23.453Z,2.60
2018-06-01T01:15:50.996Z,2.70
2018-06-01T01:18:18.482Z,3.33
2018-06-01T01:20:45.951Z,2.27
2018-06-01T01:23:13.446Z,3.30
2018-06-01T01:25:40.894Z,1.80
2018-06-01T01:28:08.390Z,7.20
2018-06-01T01:30:42.683Z,2.23
2018-06-01T01:33:10.270Z,2.80
2018-06-01T01:35:37.740Z,5.33
2018-06-01T01:38:05.196Z,3.87
2018-06-01T01:40:32.663Z,3.63
2018-06-01T01:43:00.119Z,6.40
2018-06-01T01:45:27.608Z,2.00
2018-06-01T01:47:55.059Z,1.97
2018-06-01T01:50:22.544Z,3.83
2018-06-01T01:52:50.092Z,6.93
2018-06-01T01:55:17.564Z,1.97
2018-06-01T01:57:45.085Z,4.13
2018-06-01T02:00:12.561Z,4.90
2018-06-01T02:02:40.010Z,3.87
2018-06-01T02:05:07.469Z,2.70
2018-06-01T02:07:34.928Z,1.70
2018-06-01T02:10:02.512Z,2.40
2018-06-01T02:12:29.956Z,1.50
2018-06-01T02:14:57.441Z,1.90
2018-06-01T02:17:24.942Z,2.07
2018-06-01T02:19:52.404Z,1.73
2018-06-01T02:22:19.874Z,1.97
2018-06-01T02:24:47.318Z,3.20
2018-06-01T02:27:14.774Z,2.23
2018-06-01T02:29:42.231Z,3.23
2018-06-01T02:32:09.665Z,3.93
2018-06-01T02:34:37.130Z,2.97
2018-06-01T02:37:04.650Z,7.77
2018-06-01T02:39:32.165Z,2.17
2018-06-01T02:41:59.648Z,9.57
2018-06-01T02:44:27.184Z,1.67
2018-06-01T02:46:54.654Z,2.07
2018-06-01T02:49:22.164Z,1.80
2018-06-01T02:51:49.615Z,1.63
2018-06-01T02:54:17.069Z,1.80
2018-06-01T02:56:44.546Z,6.23
2018-06-01T02:59:12.040Z,2.50
2018-06-01T03:01:39.524Z,2.73
2018-06-01T03:04:07.016Z,3.03
2018-06-01T03:06:46.548Z,2.03
2018-06-01T03:09:14.040Z,4.80
2018-06-01T03:11:41.516Z,3.70
2018-06-01T03:14:08.983Z,2.47
2018-06-01T03:16:36.455Z,2.70
2018-06-01T03:19:03.910Z,1.33
2018-06-01T03:21:31.381Z,2.93
2018-06-01T03:23:58.817Z,2.13
2018-06-01T03:26:26.250Z,3.03
2018-06-01T03:28:53.705Z,2.07
2018-06-01T03:31:21.140Z,1.77
2018-06-01T03:33:48.581Z,5.60
2018-06-01T03:36:16.818Z,1.33
2018-06-01T03:38:44.301Z,1.70
2018-06-01T03:41:11.761Z,2.23
2018-06-01T03:43:39.217Z,2.77
2018-06-01T03:46:06.655Z,1.77
2018-06-01T03:48:34.270Z,2.27
2018-06-01T03:51:01.794Z,2.93
2018-06-01T03:53:29.266Z,3.43
2018-06-01T03:55:56.774Z,1.90
2018-06-01T03:58:24.219Z,1.87
2018-06-01T04:00:51.677Z,1.77
2018-06-01T04:03:19.117Z,1.90
2018-06-01T04:05:46.561Z,2.40
2018-06-01T04:08:14.001Z,1.87
2018-06-01T04:10:41.495Z,3.63
2018-06-01T04:13:08.949Z,2.00
2018-06-01T04:15:36.404Z,3.83
2018-06-01T04:18:03.860Z,1.30
2018-06-01T04:20:31.337Z,3.57
2018-06-01T04:22:58.875Z,2.13
2018-06-01T04:25:26.356Z,2.17
2018-06-01T04:27:53.889Z,4.83
2018-06-01T04:30:21.324Z,17.83
2018-06-01T04:32:48.812Z,39.50
2018-06-01T04:35:16.277Z,32.27
2018-06-01T04:37:43.865Z,47.80
2018-06-01T04:40:11.383Z,39.97
2018-06-01T04:42:38.848Z,40.97
2018-06-01T04:45:06.390Z,29.63
2018-06-01T04:47:33.864Z,31.40
2018-06-01T04:50:01.481Z,37.27
2018-06-01T04:52:28.996Z,12.90
2018-06-01T04:54:56.444Z,18.23
2018-06-01T04:57:23.911Z,19.10
2018-06-01T04:59:51.354Z,12.87
2018-06-01T05:02:18.839Z,13.70
2018-06-01T05:04:46.343Z,10.33
2018-06-01T05:07:13.793Z,10.03
2018-06-01T05:09:41.262Z,8.47
2018-06-01T05:12:08.708Z,8.63
2018-06-01T05:14:36.169Z,10.30
2018-06-01T05:17:04.184Z,9.67
2018-06-01T05:19:31.646Z,8.23
2018-06-01T05:21:59.099Z,7.40
2018-06-01T05:24:26.561Z,4.97
2018-06-01T05:26:54.167Z,6.13
2018-06-01T05:29:22.386Z,7.10
2018-06-01T05:31:49.859Z,10.77
2018-06-01T05:34:17.391Z,12.80
2018-06-01T05:36:44.828Z,11.40
2018-06-01T05:39:13.094Z,6.93
2018-06-01T05:41:40.595Z,6.90
2018-06-01T05:44:08.039Z,5.73
2018-06-01T05:46:35.553Z,6.40
2018-06-01T05:49:03.168Z,7.43
2018-06-01T05:51:30.625Z,4.20
2018-06-01T05:53:58.063Z,6.17
2018-06-01T05:56:25.511Z,3.83
2018-06-01T05:58:52.995Z,3.17
2018-06-01T06:01:20.449Z,3.33
2018-06-01T06:03:47.896Z,4.47
2018-06-01T06:06:15.337Z,4.87
2018-06-01T06:08:42.830Z,8.40
2018-06-01T06:11:10.384Z,4.50
2018-06-01T06:13:37.927Z,9.23
2018-06-01T06:16:05.311Z,6.80
2018-06-01T06:18:32.839Z,6.73
2018-06-01T06:21:00.305Z,5.43
2018-06-01T06:23:27.759Z,2.77
2018-06-01T06:25:55.332Z,10.23
2018-06-01T06:28:22.800Z,7.23
2018-06-01T06:30:50.246Z,4.20
2018-06-01T06:33:17.695Z,2.80
2018-06-01T06:35:45.148Z,9.07
2018-06-01T06:38:12.628Z,4.73
2018-06-01T06:40:40.083Z,3.70
2018-06-01T06:43:07.583Z,5.13
2018-06-01T06:45:35.075Z,6.53
2018-06-01T06:48:02.551Z,4.93
2018-06-01T06:50:30.020Z,4.20
2018-06-01T06:52:57.525Z,5.60
2018-06-01T06:55:24.983Z,4.50
2018-06-01T06:57:52.440Z,3.80
2018-06-01T07:00:19.889Z,9.27
2018-06-01T07:02:47.468Z,8.07
2018-06-01T07:05:14.889Z,7.23
2018-06-01T07:07:42.440Z,3.83
2018-06-01T07:10:09.903Z,5.07
2018-06-01T07:12:37.394Z,12.00
2018-06-01T07:15:04.918Z,6.43
2018-06-01T07:17:32.412Z,7.00
2018-06-01T07:19:59.911Z,7.40
2018-06-01T07:22:27.382Z,8.10
2018-06-01T07:24:54.819Z,4.23
2018-06-01T07:27:22.266Z,4.77
2018-06-01T07:29:49.751Z,7.37
2018-06-01T07:32:17.231Z,4.30
2018-06-01T07:34:44.695Z,12.50
2018-06-01T07:37:12.148Z,3.90
2018-06-01T07:39:39.622Z,11.20
2018-06-01T07:42:07.094Z,5.80
2018-06-01T07:44:34.547Z,10.30
2018-06-01T07:47:02.033Z,16.73
2018-06-01T07:49:29.495Z,9.40
2018-06-01T07:51:57.002Z,6.23
2018-06-01T07:54:24.479Z,15.73
2018-06-01T07:56:51.937Z,6.70
2018-06-01T07:59:19.398Z,9.70
2018-06-01T08:01:46.939Z,7.47
2018-06-01T08:04:14.395Z,14.97
2018-06-01T08:06:41.861Z,10.00
2018-06-01T08:09:09.353Z,7.70
2018-06-01T08:11:36.874Z,10.73
2018-06-01T08:14:04.351Z,13.93
2018-06-01T08:16:31.908Z,7.93
2018-06-01T08:18:59.376Z,8.47
2018-06-01T08:21:26.943Z,8.20
2018-06-01T08:23:54.394Z,7.30
2018-06-01T08:26:22.110Z,11.07
2018-06-01T08:28:49.679Z,9.30
2018-06-01T08:31:17.214Z,14.27
2018-06-01T08:33:44.931Z,5.57
2018-06-01T08:36:12.899Z,10.77
2018-06-01T08:38:40.342Z,10.27
2018-06-01T08:41:07.781Z,5.43
2018-06-01T08:43:35.235Z,15.53
2018-06-01T08:46:02.724Z,12.47
2018-06-01T08:48:30.176Z,5.10
2018-06-01T08:50:57.629Z,13.20
2018-06-01T08:53:25.081Z,8.73
2018-06-01T08:55:52.553Z,5.83
2018-06-01T08:58:19.994Z,6.43
2018-06-01T09:00:47.435Z,4.60
2018-06-01T09:03:14.983Z,7.10
2018-06-01T09:05:42.890Z,7.93
2018-06-01T09:08:10.442Z,6.87
2018-06-01T09:10:37.912Z,7.60
2018-06-01T09:13:05.353Z,5.17
2018-06-01T09:15:33.226Z,8.23
2018-06-01T09:18:01.608Z,7.13
2018-06-01T09:20:29.589Z,7.80
2018-06-01T09:22:57.072Z,9.63
2018-06-01T09:25:24.611Z,8.10
2018-06-01T09:27:52.113Z,8.57
2018-06-01T09:30:19.591Z,9.07
2018-06-01T09:32:47.178Z,7.37
2018-06-01T09:35:14.644Z,9.00
2018-06-01T09:37:42.090Z,5.40
2018-06-01T09:40:09.557Z,8.13
2018-06-01T09:42:37.020Z,5.20
2018-06-01T09:45:04.506Z,5.70
2018-06-01T09:47:32.016Z,6.63
2018-06-01T09:49:59.481Z,6.93
2018-06-01T09:52:26.939Z,5.47
2018-06-01T09:54:54.393Z,6.80
2018-06-01T09:57:21.866Z,12.80
2018-06-01T09:59:49.314Z,7.13
2018-06-01T10:02:16.775Z,9.90
2018-06-01T10:04:44.238Z,8.83
2018-06-01T10:07:11.711Z,7.90
2018-06-01T10:09:39.182Z,9.63
2018-06-01T10:12:06.658Z,5.73
2018-06-01T10:14:34.101Z,6.57
2018-06-01T10:17:01.585Z,6.27
2018-06-01T10:19:29.038Z,6.73
2018-06-01T10:21:56.514Z,7.67
2018-06-01T10:24:23.978Z,4.80
2018-06-01T10:26:51.410Z,7.00
2018-06-01T10:29:18.864Z,8.53
2018-06-01T10:31:46.326Z,4.70
2018-06-01T10:34:13.778Z,5.83
2018-06-01T10:36:41.219Z,4.60
2018-06-01T10:39:08.752Z,4.47
2018-06-01T10:41:36.222Z,5.43
2018-06-01T10:44:03.695Z,4.07
2018-06-01T10:46:31.162Z,7.90
2018-06-01T10:48:58.601Z,4.20
2018-06-01T10:51:26.085Z,8.50
2018-06-01T10:53:53.590Z,7.53
2018-06-01T10:56:21.122Z,4.83
2018-06-01T10:58:49.111Z,4.13
2018-06-01T11:01:16.590Z,6.00
2018-06-01T11:03:44.035Z,4.70
2018-06-01T11:06:11.513Z,5.73
2018-06-01T11:08:38.958Z,5.67
2018-06-01T11:11:06.414Z,4.27
2018-06-01T11:13:33.900Z,5.20
2018-06-01T11:16:01.378Z,9.97
2018-06-01T11:18:28.868Z,7.60
2018-06-01T11:20:56.334Z,6.80
2018-06-01T11:23:23.866Z,7.03
2018-06-01T11:25:51.348Z,4.80
2018-06-01T11:28:18.902Z,5.17
2018-06-01T11:30:46.371Z,6.03
2018-06-01T11:33:13.835Z,6.40
2018-06-01T11:35:41.353Z,7.80
2018-06-01T11:38:08.808Z,5.87
2018-06-01T11:40:36.244Z,4.47
2018-06-01T11:43:04.523Z,4.20
2018-06-01T11:45:32.206Z,5.07
2018-06-01T11:47:59.738Z,4.13
2018-06-01T11:50:27.181Z,4.13
2018-06-01T11:52:55.284Z,4.03
2018-06-01T11:55:23.258Z,4.70
2018-06-01T11:57:50.707Z,4.87
2018-06-01T12:00:18.182Z,5.17
2018-06-01T12:02:45.647Z,5.50
2018-06-01T12:05:13.081Z,3.83
2018-06-01T12:07:40.598Z,4.20
2018-06-01T12:10:08.029Z,5.07
2018-06-01T12:12:35.638Z,4.60
2018-06-01T12:15:04.321Z,5.40
2018-06-01T12:17:31.852Z,5.93
2018-06-01T12:19:59.279Z,6.57
2018-06-01T12:22:26.824Z,3.70
2018-06-01T12:24:54.291Z,4.23
2018-06-01T12:27:21.748Z,3.90
2018-06-01T12:29:49.474Z,4.43
2018-06-01T12:32:17.143Z,4.70
2018-06-01T12:34:44.644Z,4.43
2018-06-01T12:37:12.092Z,4.10
2018-06-01T12:39:39.561Z,5.57
2018-06-01T12:42:07.018Z,7.30
2018-06-01T12:44:34.447Z,6.17
2018-06-01T12:47:01.914Z,6.77
2018-06-01T12:49:29.419Z,4.27
2018-06-01T12:51:56.852Z,6.03
2018-06-01T12:54:24.314Z,3.10
2018-06-01T12:56:51.806Z,7.27
2018-06-01T12:59:19.266Z,4.53
2018-06-01T13:01:46.723Z,4.13
2018-06-01T13:04:14.284Z,3.97
2018-06-01T13:06:41.749Z,3.77
2018-06-01T13:09:10.097Z,3.73
2018-06-01T13:11:37.535Z,3.40
2018-06-01T13:14:04.996Z,6.47
2018-06-01T13:16:32.473Z,4.93
2018-06-01T13:18:59.967Z,3.67
2018-06-01T13:21:27.402Z,3.97
2018-06-01T13:23:54.868Z,4.10
2018-06-01T13:26:22.336Z,3.30
2018-06-01T13:28:49.771Z,3.03
2018-06-01T13:31:17.241Z,2.90
2018-06-01T13:33:44.678Z,3.83
2018-06-01T13:36:12.127Z,3.33
2018-06-01T13:38:39.586Z,4.60
2018-06-01T13:41:07.072Z,3.17
2018-06-01T13:43:34.564Z,4.40
2018-06-01T13:46:02.132Z,3.47
2018-06-01T13:48:29.597Z,2.80
2018-06-01T13:50:57.038Z,3.80
2018-06-01T13:53:24.509Z,3.27
2018-06-01T13:55:51.981Z,3.27
2018-06-01T13:58:19.418Z,2.70
2018-06-01T14:00:47.511Z,2.27
2018-06-01T14:03:14.963Z,2.80
2018-06-01T14:05:42.425Z,3.17
2018-06-01T14:08:09.857Z,4.23
2018-06-01T14:10:37.306Z,3.90
2018-06-01T14:13:04.761Z,3.47
2018-06-01T14:15:32.298Z,2.83
2018-06-01T14:17:59.760Z,2.40
2018-06-01T14:20:27.254Z,4.20
2018-06-01T14:22:54.717Z,7.73
2018-06-01T14:25:22.174Z,3.00
2018-06-01T14:27:49.636Z,2.40
2018-06-01T14:30:17.150Z,2.97
2018-06-01T14:32:44.591Z,3.00
2018-06-01T14:35:12.043Z,3.27
2018-06-01T14:37:39.553Z,7.53
2018-06-01T14:40:06.982Z,3.00
2018-06-01T14:42:34.472Z,4.53
2018-06-01T14:45:01.983Z,5.83
2018-06-01T14:47:29.529Z,3.70
2018-06-01T14:49:56.979Z,5.37
2018-06-01T14:52:24.420Z,3.87
2018-06-01T14:54:51.976Z,8.00
2018-06-01T14:57:19.517Z,5.70
2018-06-01T14:59:47.084Z,3.83
2018-06-01T15:02:15.671Z,3.93
2018-06-01T15:04:43.264Z,3.30
2018-06-01T15:07:11.012Z,7.47
2018-06-01T15:09:38.455Z,4.23
2018-06-01T15:12:06.118Z,4.37
2018-06-01T15:14:33.555Z,3.53
2018-06-01T15:17:01.009Z,3.70
2018-06-01T15:19:28.466Z,3.00
2018-06-01T15:21:55.909Z,2.97
2018-06-01T15:24:23.350Z,5.63
2018-06-01T15:26:50.811Z,3.37
2018-06-01T15:29:19.114Z,10.30
2018-06-01T15:31:46.919Z,3.70
2018-06-01T15:34:14.803Z,3.60
2018-06-01T15:36:43.306Z,3.43
2018-06-01T15:39:10.769Z,4.23
2018-06-01T15:41:38.234Z,3.27
2018-06-01T15:44:05.752Z,3.33
2018-06-01T15:46:33.266Z,3.43
2018-06-01T15:49:00.776Z,5.27
2018-06-01T15:51:28.214Z,3.00
2018-06-01T15:53:55.662Z,6.20
2018-06-01T15:56:23.110Z,2.70
2018-06-01T15:58:50.647Z,2.97
2018-06-01T16:01:18.108Z,3.27
2018-06-01T16:03:45.541Z,3.83
2018-06-01T16:06:12.992Z,6.20
2018-06-01T16:08:40.483Z,3.53
2018-06-01T16:11:08.023Z,3.47
2018-06-01T16:13:35.485Z,3.37
2018-06-01T16:16:02.926Z,3.57
2018-06-01T16:18:30.517Z,3.80
2018-06-01T16:20:58.019Z,5.50
2018-06-01T16:23:25.578Z,3.80
2018-06-01T16:25:53.030Z,2.80
2018-06-01T16:28:21.857Z,3.63
2018-06-01T16:30:49.478Z,3.73
2018-06-01T16:33:17.187Z,3.53
2018-06-01T16:35:44.705Z,4.60
2018-06-01T16:38:12.225Z,4.97
2018-06-01T16:40:39.785Z,4.43
2018-06-01T16:43:07.223Z,5.87
2018-06-01T16:45:35.747Z,3.87
2018-06-01T16:48:03.181Z,7.03
2018-06-01T16:50:30.638Z,5.07
2018-06-01T16:52:58.095Z,5.33
2018-06-01T16:55:25.525Z,12.03
2018-06-01T16:57:52.986Z,4.20
2018-06-01T17:00:20.547Z,18.20
2018-06-01T17:02:48.003Z,43.40
2018-06-01T17:05:15.445Z,36.13
2018-06-01T17:07:42.917Z,17.40
2018-06-01T17:10:10.389Z,42.57
2018-06-01T17:12:37.862Z,31.73
2018-06-01T17:15:05.321Z,3.53
2018-06-01T17:17:32.769Z,11.43
2018-06-01T17:20:00.334Z,10.80
2018-06-01T17:22:27.874Z,36.63
2018-06-01T17:24:55.441Z,24.30
2018-06-01T17:27:22.924Z,73.70
2018-06-01T17:29:50.377Z,7.07
2018-06-01T17:32:17.900Z,4.50
2018-06-01T17:34:45.350Z,6.83
2018-06-01T17:37:12.815Z,3.40
2018-06-01T17:39:40.381Z,33.17
2018-06-01T17:42:07.862Z,10.53
2018-06-01T17:44:35.301Z,3.10
2018-06-01T17:47:02.773Z,17.33
2018-06-01T17:49:30.287Z,26.13
2018-06-01T17:51:57.750Z,6.23
2018-06-01T17:54:25.208Z,3.90
2018-06-01T17:56:52.664Z,4.87
2018-06-01T17:59:20.127Z,4.00
2018-06-01T18:01:47.617Z,16.97
2018-06-01T18:04:15.153Z,4.40
2018-06-01T18:06:42.672Z,10.07
2018-06-01T18:09:10.265Z,19.93
2018-06-01T18:11:37.737Z,36.10
2018-06-01T18:14:05.207Z,13.13
2018-06-01T18:16:32.737Z,25.27
2018-06-01T18:19:00.252Z,18.00
2018-06-01T18:21:27.880Z,18.33
2018-06-01T18:23:55.480Z,35.40
2018-06-01T18:26:22.993Z,32.13
2018-06-01T18:28:50.521Z,36.97
2018-06-01T18:31:17.991Z,41.40
2018-06-01T18:33:45.488Z,21.30
2018-06-01T18:36:12.962Z,36.13
2018-06-01T18:38:40.445Z,5.63
2018-06-01T18:41:07.893Z,4.53
2018-06-01T18:43:35.351Z,25.33
2018-06-01T18:46:02.821Z,53.13
2018-06-01T18:48:30.355Z,37.03
2018-06-01T18:50:57.836Z,42.50
2018-06-01T18:53:25.277Z,17.53
2018-06-01T18:55:52.785Z,9.80
2018-06-01T18:58:20.288Z,24.90
2018-06-01T19:00:48.055Z,33.37
2018-06-01T19:03:15.516Z,8.73
2018-06-01T19:05:42.975Z,13.17
2018-06-01T19:08:10.478Z,15.90
2018-06-01T19:10:38.017Z,7.23
2018-06-01T19:13:05.463Z,31.13
2018-06-01T19:15:32.895Z,25.13
2018-06-01T19:18:00.492Z,34.80
2018-06-01T19:20:28.158Z,30.97
2018-06-01T19:22:55.613Z,51.63
2018-06-01T19:25:23.056Z,34.83
2018-06-01T19:27:50.534Z,9.70
2018-06-01T19:30:18.090Z,21.20
2018-06-01T19:32:45.553Z,4.13
2018-06-01T19:35:13.022Z,7.30
2018-06-01T19:37:40.470Z,43.60
2018-06-01T19:40:07.931Z,9.37
2018-06-01T19:42:35.366Z,21.10
2018-06-01T19:45:02.818Z,8.63
2018-06-01T19:47:30.283Z,14.53
2018-06-01T19:49:57.729Z,28.80
2018-06-01T19:52:25.194Z,27.30
2018-06-01T19:54:52.640Z,8.50
2018-06-01T19:57:20.108Z,10.30
2018-06-01T19:59:47.567Z,14.87
2018-06-01T20:02:15.015Z,26.00
2018-06-01T20:04:42.511Z,31.17
2018-06-01T20:07:10.054Z,42.90
2018-06-01T20:09:37.538Z,30.17
2018-06-01T20:12:04.982Z,36.20
2018-06-01T20:14:32.634Z,29.30
2018-06-01T20:17:00.099Z,4.60
2018-06-01T20:19:27.549Z,32.00
2018-06-01T20:21:55.014Z,21.73
2018-06-01T20:24:22.486Z,17.07
2018-06-01T20:26:49.954Z,16.77
2018-06-01T20:29:17.466Z,8.93
2018-06-01T20:31:44.913Z,4.60
2018-06-01T20:34:12.367Z,7.40
2018-06-01T20:36:39.861Z,5.43
2018-06-01T20:39:07.310Z,4.63
2018-06-01T20:41:34.837Z,6.70
2018-06-01T20:44:02.376Z,24.43
2018-06-01T20:46:29.849Z,4.47
2018-06-01T20:48:57.306Z,9.07
2018-06-01T20:51:24.856Z,5.73
2018-06-01T20:53:52.264Z,7.57
2018-06-01T20:56:19.744Z,4.40
2018-06-01T20:58:47.193Z,5.30
2018-06-01T21:01:14.636Z,7.20
2018-06-01T21:03:42.109Z,7.80
2018-06-01T21:06:09.632Z,12.57
2018-06-01T21:08:37.112Z,11.70
2018-06-01T21:11:04.570Z,12.50
2018-06-01T21:13:32.105Z,8.60
2018-06-01T21:15:59.547Z,8.90
2018-06-01T21:18:27.004Z,5.30
2018-06-01T21:20:54.468Z,6.57
2018-06-01T21:23:22.000Z,10.40
2018-06-01T21:25:49.489Z,11.73
2018-06-01T21:28:16.971Z,8.03
2018-06-01T21:30:44.417Z,8.30
2018-06-01T21:33:11.892Z,6.80
2018-06-01T21:35:39.333Z,10.50
2018-06-01T21:38:06.798Z,9.07
2018-06-01T21:40:34.259Z,5.43
2018-06-01T21:43:01.724Z,9.23
2018-06-01T21:45:29.189Z,5.70
2018-06-01T21:47:56.656Z,4.60
2018-06-01T21:50:24.211Z,7.53
2018-06-01T21:52:51.656Z,4.53
2018-06-01T21:55:19.187Z,4.07
2018-06-01T21:57:46.720Z,3.93
2018-06-01T22:00:14.214Z,4.27
2018-06-01T22:02:41.911Z,8.13
2018-06-01T22:05:09.973Z,6.40
2018-06-01T22:07:41.021Z,5.17
2018-06-01T22:10:08.568Z,3.87
2018-06-01T22:12:36.149Z,8.40
2018-06-01T22:15:04.993Z,9.63
2018-06-01T22:17:33.292Z,8.77
2018-06-01T22:20:00.829Z,3.97
2018-06-01T22:22:28.281Z,5.20
2018-06-01T22:24:55.717Z,8.70
2018-06-01T22:27:23.182Z,5.07
2018-06-01T22:29:50.653Z,6.90
2018-06-01T22:32:18.092Z,6.23
2018-06-01T22:34:45.572Z,9.07
2018-06-01T22:37:13.137Z,14.27
2018-06-01T22:39:40.607Z,5.30
2018-06-01T22:42:08.075Z,7.40
2018-06-01T22:44:35.557Z,5.87
2018-06-01T22:47:02.996Z,4.47
2018-06-01T22:49:30.440Z,7.30
2018-06-01T22:51:58.009Z,11.93
2018-06-01T22:54:25.457Z,5.17
2018-06-01T22:56:52.961Z,3.90
2018-06-01T22:59:20.426Z,5.60
2018-06-01T23:01:47.877Z,4.63
2018-06-01T23:04:15.346Z,5.50
2018-06-01T23:06:42.833Z,5.30
2018-06-01T23:09:10.369Z,3.83
2018-06-01T23:11:37.853Z,4.37
2018-06-01T23:14:05.318Z,4.50
2018-06-01T23:16:32.758Z,5.07
2018-06-01T23:19:00.247Z,4.30
2018-06-01T23:21:27.723Z,7.87
2018-06-01T23:23:55.197Z,4.00
2018-06-01T23:26:22.671Z,3.30
2018-06-01T23:28:50.123Z,3.87
2018-06-01T23:31:17.590Z,4.47
2018-06-01T23:33:45.039Z,4.63
2018-06-01T23:36:12.528Z,30.23
2018-06-01T23:38:40.099Z,6.10
2018-06-01T23:41:07.590Z,11.03
2018-06-01T23:43:35.105Z,3.37
2018-06-01T23:46:02.545Z,6.83
2018-06-01T23:48:30.014Z,5.33
2018-06-01T23:50:57.459Z,5.53
2018-06-01T23:53:24.930Z,8.23
2018-06-01T23:55:52.395Z,6.20
2018-06-01T23:58:19.839Z,3.40
